Time;durP1;ratioP1;P1;durP2;ratioP2;P2;SDS_P1;SDS_P2;PMS_P1;PMS_P2;Temp;Humidity;BMP_temperature;BMP_pressure;BME280_temperature;BME280_humidity;BME280_pressure;Samples;Min_cycle;Max_cycle;Signal;HPM_P1;HPM_P2
2022/11/08 00:01:30;;;;;;;8.77;7.90;;;;;;;4.18;100.00;97188.38;4958312;28;20216;-63
2022/11/08 00:03:04;;;;;;;10.17;8.77;;;;;;;4.22;100.00;97188.09;4876519;28;20251;-61
2022/11/08 00:13:57;;;;;;;9.20;8.17;;;;;;;3.99;100.00;97180.56;4932928;28;20216;-62
2022/11/08 00:16:25;;;;;;;8.90;8.20;;;;;;;3.90;100.00;97172.59;4958162;28;20611;-59
2022/11/08 00:18:53;;;;;;;8.33;7.63;;;;;;;3.78;100.00;97167.66;4905219;28;20228;-60
2022/11/08 00:21:22;;;;;;;9.23;8.33;;;;;;;3.75;100.00;97177.44;4958822;28;21144;-60
2022/11/08 00:23:51;;;;;;;9.80;8.97;;;;;;;3.76;100.00;97178.25;4927909;28;20217;-62
2022/11/08 00:26:19;;;;;;;9.30;8.60;;;;;;;3.75;100.00;97176.63;4958489;28;21807;-60
2022/11/08 00:28:48;;;;;;;10.63;9.73;;;;;;;3.73;100.00;97168.06;4972129;28;20230;-63
2022/11/08 00:31:16;;;;;;;8.90;8.10;;;;;;;3.73;100.00;97170.69;5009026;28;21051;-61
2022/11/08 00:33:44;;;;;;;9.97;8.97;;;;;;;3.68;100.00;97183.38;4972933;28;20294;-64
2022/11/08 00:36:12;;;;;;;8.80;8.10;;;;;;;3.70;100.00;97178.84;5017494;28;20890;-62
2022/11/08 00:38:42;;;;;;;10.77;9.20;;;;;;;3.72;100.00;97177.75;4996420;28;20784;-62
2022/11/08 00:41:12;;;;;;;12.30;8.93;;;;;;;3.81;100.00;97165.59;5020808;28;20423;-60
2022/11/08 00:43:40;;;;;;;11.40;8.83;;;;;;;3.81;100.00;97160.34;4988731;28;20207;-58
2022/11/08 00:46:08;;;;;;;10.90;9.80;;;;;;;3.76;100.00;97162.53;4992268;28;20316;-61
2022/11/08 00:48:37;;;;;;;10.10;8.43;;;;;;;3.67;100.00;97176.50;4975971;28;20245;-63
2022/11/08 00:51:07;;;;;;;9.87;8.80;;;;;;;3.60;100.00;97160.53;5019613;28;20194;-61
2022/11/08 00:53:37;;;;;;;7.80;7.10;;;;;;;3.51;100.00;97154.31;4990558;28;20234;-62
2022/11/08 00:56:07;;;;;;;8.90;7.77;;;;;;;3.46;100.00;97149.50;5021752;28;20218;-64
2022/11/08 00:58:36;;;;;;;8.37;7.57;;;;;;;3.41;100.00;97151.72;5018270;28;20235;-62
2022/11/08 01:01:09;;;;;;;7.97;7.27;;;;;;;3.32;100.00;97145.50;4999556;28;20210;-63
2022/11/08 01:03:38;;;;;;;9.93;7.27;;;;;;;3.24;100.00;97144.56;5018623;28;20202;-61
2022/11/08 01:06:07;;;;;;;10.00;8.47;;;;;;;3.24;100.00;97145.38;4975057;28;20214;-58
2022/11/08 01:08:36;;;;;;;7.97;7.37;;;;;;;3.23;100.00;97151.59;4995991;28;20253;-62
2022/11/08 01:11:06;;;;;;;8.17;7.07;;;;;;;3.10;100.00;97145.81;5017217;28;20427;-62
2022/11/08 01:13:36;;;;;;;8.20;7.50;;;;;;;3.14;100.00;97150.63;5018141;28;20226;-60
2022/11/08 01:16:08;;;;;;;8.77;7.97;;;;;;;3.17;100.00;97145.09;4996348;28;20218;-61
2022/11/08 01:18:37;;;;;;;7.97;7.37;;;;;;;3.16;100.00;97142.63;5017801;28;20249;-62
2022/11/08 01:21:06;;;;;;;9.23;8.37;;;;;;;3.19;100.00;97135.31;4973388;28;20401;-63
2022/11/08 01:23:34;;;;;;;8.97;8.07;;;;;;;3.21;100.00;97144.81;5015590;28;20564;-63
2022/11/08 01:26:04;;;;;;;8.80;8.00;;;;;;;3.30;100.00;97149.25;4995525;28;20220;-59
2022/11/08 01:28:32;;;;;;;8.60;7.90;;;;;;;3.36;100.00;97143.44;5019503;28;20222;-64
2022/11/08 01:31:06;;;;;;;8.00;7.30;;;;;;;3.30;100.00;97146.63;5025662;28;20210;-61
2022/11/08 01:33:34;;;;;;;9.40;8.60;;;;;;;3.28;100.00;97149.38;4995384;28;20531;-62
2022/11/08 01:36:02;;;;;;;7.70;7.17;;;;;;;3.17;100.00;97136.44;4975710;28;20494;-62
2022/11/08 01:38:30;;;;;;;8.43;7.63;;;;;;;3.13;100.00;97141.09;5023480;28;20230;-61
2022/11/08 01:40:59;;;;;;;8.63;7.93;;;;;;;3.11;100.00;97143.03;4999395;28;20203;-60
2022/11/08 01:43:39;;;;;;;10.20;7.53;;;;;;;3.03;100.00;97137.66;5022975;28;20202;-62
2022/11/08 01:46:37;;;;;;;8.57;7.97;;;;;;;2.94;100.00;97136.69;5026131;28;20221;-63
2022/11/08 01:49:39;;;;;;;7.67;7.07;;;;;;;2.93;100.00;97137.66;5020701;28;20671;-61
2022/11/08 01:52:24;;;;;;;7.60;6.97;;;;;;;2.86;100.00;97129.53;4974868;28;20273;-64
2022/11/08 01:55:02;;;;;;;8.33;7.67;;;;;;;2.81;100.00;97123.06;5024217;28;20199;-62
2022/11/08 01:57:35;;;;;;;8.27;7.57;;;;;;;2.92;100.00;97129.97;4992255;28;20205;-62
2022/11/08 02:00:06;;;;;;;7.70;7.20;;;;;;;2.99;100.00;97123.22;5024333;28;20226;-62
2022/11/08 02:02:37;;;;;;;8.67;7.77;;;;;;;3.13;100.00;97122.78;4996301;28;21325;-60
2022/11/08 02:05:23;;;;;;;8.23;7.53;;;;;;;3.08;100.00;97117.13;5023388;28;20593;-59
2022/11/08 02:07:58;;;;;;;8.40;7.80;;;;;;;3.09;100.00;97117.97;4925201;28;20884;-61
2022/11/08 02:10:30;;;;;;;8.93;7.93;;;;;;;3.06;100.00;97113.84;5009744;28;20745;-58
2022/11/08 02:12:58;;;;;;;8.00;7.20;;;;;;;3.04;100.00;97113.16;5020141;28;20423;-63
2022/11/08 02:15:32;;;;;;;8.67;7.80;;;;;;;2.97;100.00;97105.00;5015462;28;21025;-61
2022/11/08 02:18:05;;;;;;;8.13;7.53;;;;;;;2.85;100.00;97114.81;5013338;28;20211;-62
2022/11/08 02:20:34;;;;;;;7.80;7.20;;;;;;;2.70;100.00;97105.69;5022879;28;20444;-60
2022/11/08 02:23:09;;;;;;;7.50;6.90;;;;;;;2.54;100.00;97107.06;5023149;28;20307;-62
2022/11/08 02:25:40;;;;;;;7.77;7.17;;;;;;;2.52;100.00;97108.13;4970219;28;20226;-63
2022/11/08 02:28:08;;;;;;;8.37;7.77;;;;;;;2.49;100.00;97104.03;5024815;28;20276;-62
2022/11/08 02:30:37;;;;;;;7.80;7.20;;;;;;;2.48;100.00;97109.38;4991177;28;20343;-64
2022/11/08 02:33:14;;;;;;;7.67;6.97;;;;;;;2.52;100.00;97108.97;5013525;28;21033;-59
2022/11/08 02:35:45;;;;;;;7.10;6.50;;;;;;;2.62;100.00;97105.53;5019593;28;21129;-58
2022/11/08 02:38:13;;;;;;;7.70;7.20;;;;;;;2.59;100.00;97104.84;5023862;28;20203;-58
2022/11/08 02:40:47;;;;;;;7.80;7.20;;;;;;;2.65;100.00;97106.13;4965673;28;20211;-59
2022/11/08 02:43:15;;;;;;;7.97;7.37;;;;;;;2.60;100.00;97103.91;5023900;28;20289;-59
2022/11/08 02:45:44;;;;;;;6.80;6.30;;;;;;;2.55;100.00;97100.03;4997569;28;20552;-62
2022/11/08 02:48:12;;;;;;;7.00;6.43;;;;;;;2.47;100.00;97098.09;5022904;28;20620;-65
2022/11/08 02:50:41;;;;;;;7.90;7.20;;;;;;;2.49;100.00;97105.78;5020604;28;20207;-67
2022/11/08 02:53:09;;;;;;;7.73;7.07;;;;;;;2.39;100.00;97093.53;5023596;28;20590;-67
2022/11/08 02:55:38;;;;;;;7.93;7.30;;;;;;;2.37;100.00;97100.69;4967422;28;20595;-66
2022/11/08 02:58:08;;;;;;;7.70;6.90;;;;;;;2.37;100.00;97099.84;5023486;28;20772;-64
2022/11/08 03:00:36;;;;;;;8.10;7.13;;;;;;;2.31;100.00;97099.44;5021288;28;20452;-66
2022/11/08 03:03:04;;;;;;;7.47;6.77;;;;;;;2.34;100.00;97095.72;4996878;28;20610;-67
2022/11/08 03:05:33;;;;;;;6.50;6.00;;;;;;;2.31;100.00;97091.59;5020037;28;20710;-67
2022/11/08 03:08:01;;;;;;;6.97;6.43;;;;;;;2.26;100.00;97080.69;5023371;28;20930;-66
2022/11/08 03:10:30;;;;;;;7.00;6.50;;;;;;;2.24;100.00;97079.16;4972315;28;20223;-66
2022/11/08 03:12:59;;;;;;;6.10;5.67;;;;;;;2.22;100.00;97074.09;5020747;28;20206;-65
2022/11/08 03:15:29;;;;;;;6.83;6.33;;;;;;;2.18;100.00;97059.63;5023223;28;20214;-65
2022/11/08 03:17:59;;;;;;;7.17;6.57;;;;;;;2.20;100.00;97075.19;4990892;28;20661;-65
2022/11/08 03:20:27;;;;;;;7.13;6.50;;;;;;;2.16;100.00;97078.06;5022144;28;20696;-63
2022/11/08 03:23:01;;;;;;;6.97;6.47;;;;;;;2.08;100.00;97074.44;5022009;28;20646;-65
2022/11/08 03:25:30;;;;;;;6.60;6.10;;;;;;;2.00;100.00;97067.28;4973373;28;20551;-62
2022/11/08 03:28:01;;;;;;;6.37;5.97;;;;;;;1.98;100.00;97082.28;5028171;28;20394;-66
2022/11/08 03:30:31;;;;;;;7.97;7.27;;;;;;;1.85;100.00;97059.00;5038337;28;20222;-67
2022/11/08 03:32:59;;;;;;;6.63;6.23;;;;;;;1.95;100.00;97070.28;5004678;28;20215;-67
2022/11/08 03:35:28;;;;;;;7.73;6.93;;;;;;;1.96;100.00;97060.69;5037765;28;20241;-66
2022/11/08 03:37:57;;;;;;;8.00;7.30;;;;;;;1.96;100.00;97060.69;5033832;28;20654;-65
2022/11/08 03:40:25;;;;;;;12.83;8.13;;;;;;;1.99;100.00;97061.22;4980286;28;20226;-67
2022/11/08 03:42:55;;;;;;;9.87;8.50;;;;;;;2.01;100.00;97067.16;5033230;28;20266;-67
2022/11/08 03:45:24;;;;;;;8.40;7.60;;;;;;;2.08;100.00;97059.59;5035598;28;20225;-64
2022/11/08 03:47:53;;;;;;;8.07;7.37;;;;;;;2.13;100.00;97060.03;5001319;28;20744;-59
2022/11/08 03:50:22;;;;;;;8.27;7.47;;;;;;;2.01;100.00;97064.53;5026027;28;20233;-65
2022/11/08 03:52:52;;;;;;;8.50;7.80;;;;;;;1.99;100.00;97066.44;5017659;28;20706;-65
2022/11/08 03:55:21;;;;;;;9.03;8.10;;;;;;;1.96;100.00;97061.50;5021559;28;20664;-65
2022/11/08 03:57:50;;;;;;;7.87;7.17;;;;;;;1.92;100.00;97061.91;4969160;28;22326;-63
2022/11/08 04:00:20;;;;;;;8.43;7.73;;;;;;;1.91;100.00;97058.44;5021444;28;20237;-65
2022/11/08 04:02:48;;;;;;;8.37;7.57;;;;;;;1.93;100.00;97066.19;5018799;28;20748;-62
2022/11/08 04:05:18;;;;;;;8.37;7.53;;;;;;;1.93;100.00;97061.75;4997237;28;20400;-63
2022/11/08 04:07:47;;;;;;;7.77;7.17;;;;;;;1.85;100.00;97059.78;4982695;28;20765;-66
2022/11/08 04:10:16;;;;;;;7.83;7.00;;;;;;;1.89;100.00;97060.38;5022822;28;20698;-66
2022/11/08 04:15:31;;;;;;;8.53;7.83;;;;;;;1.94;100.00;97070.44;4969790;28;20249;-67
2022/11/08 04:23:46;;;;;;;8.30;7.27;;;;;;;2.15;100.00;97062.53;4950018;28;20462;-63
2022/11/08 04:26:15;;;;;;;9.23;8.37;;;;;;;2.13;100.00;97069.66;4976683;28;20466;-63
2022/11/08 04:28:44;;;;;;;11.93;9.00;;;;;;;2.17;100.00;97071.88;4957367;28;20296;-64
2022/11/08 04:31:14;;;;;;;13.87;10.67;;;;;;;2.24;100.00;97063.47;4920966;28;20213;-62
2022/11/08 04:33:42;;;;;;;17.13;11.07;;;;;;;2.28;100.00;97057.06;4976911;28;20226;-64
2022/11/08 04:36:14;;;;;;;10.73;9.67;;;;;;;2.32;100.00;97053.19;4980430;28;20291;-62
2022/11/08 04:38:42;;;;;;;9.90;8.93;;;;;;;2.37;100.00;97052.78;4947042;28;20251;-64
2022/11/08 04:41:12;;;;;;;32.83;13.27;;;;;;;2.41;100.00;97056.78;4978758;28;20270;-60
2022/11/08 04:43:41;;;;;;;11.53;10.23;;;;;;;2.46;100.00;97059.81;4979474;28;20201;-64
2022/11/08 04:46:10;;;;;;;46.33;14.07;;;;;;;2.47;100.00;97051.03;4926837;28;20898;-63
2022/11/08 04:48:38;;;;;;;28.37;12.43;;;;;;;2.47;100.00;97045.78;4978297;28;20232;-64
2022/11/08 04:51:08;;;;;;;19.87;12.37;;;;;;;2.44;100.00;97048.66;4979133;28;20555;-62
2022/11/08 04:53:38;;;;;;;28.07;9.33;;;;;;;2.43;100.00;97049.63;4972407;28;20729;-64
2022/11/08 04:56:08;;;;;;;31.97;11.33;;;;;;;2.43;100.00;97054.84;5001621;28;20519;-65
2022/11/08 04:58:37;;;;;;;35.60;13.00;;;;;;;2.42;100.00;97058.44;5023878;28;20223;-65
2022/11/08 05:01:07;;;;;;;22.57;12.63;;;;;;;2.44;100.00;97052.09;5023489;28;20408;-65
2022/11/08 05:03:36;;;;;;;9.90;8.90;;;;;;;2.48;100.00;97049.22;4979023;28;20210;-65
2022/11/08 05:06:06;;;;;;;9.60;8.80;;;;;;;2.45;100.00;97053.75;5027213;28;20760;-64
2022/11/08 05:08:34;;;;;;;8.20;7.60;;;;;;;2.46;100.00;97047.56;5019180;28;20415;-62
2022/11/08 05:11:05;;;;;;;10.23;7.77;;;;;;;2.40;100.00;97044.66;5010038;28;20297;-64
2022/11/08 05:13:34;;;;;;;10.07;9.07;;;;;;;2.42;100.00;97047.97;5014552;28;20205;-65
2022/11/08 05:16:04;;;;;;;8.50;7.70;;;;;;;2.41;100.00;97051.53;5003791;28;20310;-63
2022/11/08 05:18:33;;;;;;;8.83;8.13;;;;;;;2.38;100.00;97041.34;4984284;28;20226;-63
2022/11/08 05:23:48;;;;;;;33.80;10.03;;;;;;;2.32;100.00;97042.75;5025384;28;20206;-63
2022/11/08 05:26:19;;;;;;;18.83;12.30;;;;;;;2.21;100.00;97041.06;5001438;28;20210;-64
2022/11/08 05:28:47;;;;;;;19.20;12.07;;;;;;;2.24;100.00;97040.78;5025353;28;20501;-63
2022/11/08 05:31:16;;;;;;;12.47;11.30;;;;;;;2.28;100.00;97036.94;5026110;28;20907;-63
2022/11/08 05:33:45;;;;;;;13.30;11.07;;;;;;;2.28;100.00;97036.94;5006649;28;20576;-65
2022/11/08 05:36:16;;;;;;;18.87;9.90;;;;;;;2.29;100.00;97041.22;5017599;28;20218;-64
2022/11/08 05:38:44;;;;;;;12.80;9.87;;;;;;;2.33;100.00;97039.16;5023576;28;20218;-63
2022/11/08 05:41:14;;;;;;;12.17;9.20;;;;;;;2.37;100.00;97034.47;5006909;28;20214;-65
2022/11/08 05:43:46;;;;;;;14.43;10.00;;;;;;;2.32;100.00;97045.34;5025171;28;20202;-65
2022/11/08 05:46:15;;;;;;;9.30;8.60;;;;;;;2.31;100.00;97039.28;5026218;28;20198;-61
2022/11/08 05:48:45;;;;;;;10.80;9.90;;;;;;;2.36;100.00;97038.06;4998165;28;20470;-65
2022/11/08 05:51:14;;;;;;;22.27;12.30;;;;;;;2.33;100.00;97033.94;4995966;28;20207;-64
2022/11/08 05:53:43;;;;;;;15.27;10.20;;;;;;;2.33;100.00;97039.16;5028294;28;20204;-63
2022/11/08 05:56:11;;;;;;;10.63;9.53;;;;;;;2.40;100.00;97045.50;5004698;28;20227;-65
2022/11/08 05:58:39;;;;;;;26.30;10.00;;;;;;;2.38;100.00;97043.97;5026265;28;20865;-64
2022/11/08 06:01:11;;;;;;;10.60;9.70;;;;;;;2.39;100.00;97049.09;5024028;28;20210;-65
2022/11/08 06:03:40;;;;;;;14.67;10.43;;;;;;;2.45;100.00;97045.06;4985884;28;21137;-65
2022/11/08 06:06:10;;;;;;;10.97;10.07;;;;;;;2.51;100.00;97041.94;5004396;28;21157;-62
2022/11/08 06:08:39;;;;;;;11.57;10.50;;;;;;;2.42;100.00;97045.34;4996605;28;20237;-64
2022/11/08 06:11:09;;;;;;;9.13;8.43;;;;;;;2.50;100.00;97042.06;4992470;28;20882;-60
2022/11/08 06:13:38;;;;;;;9.87;9.07;;;;;;;2.54;100.00;97038.22;5024848;28;20259;-63
2022/11/08 06:16:07;;;;;;;11.60;10.57;;;;;;;2.48;100.00;97036.16;4984843;28;20586;-65
2022/11/08 06:18:38;;;;;;;12.40;11.30;;;;;;;2.53;100.00;97050.47;5013140;28;20227;-63
2022/11/08 06:21:08;;;;;;;13.27;12.27;;;;;;;2.49;100.00;97048.25;4992585;28;20291;-61
2022/11/08 06:23:36;;;;;;;15.80;14.23;;;;;;;2.53;100.00;97047.84;4965502;28;20210;-60
2022/11/08 06:26:05;;;;;;;12.90;11.80;;;;;;;2.54;100.00;97046.06;5021716;28;20199;-60
2022/11/08 06:28:34;;;;;;;12.23;11.13;;;;;;;2.59;100.00;97055.16;5013498;28;20237;-64
2022/11/08 06:31:03;;;;;;;10.47;9.57;;;;;;;2.62;100.00;97045.38;5013944;28;20572;-62
2022/11/08 06:33:31;;;;;;;11.90;10.70;;;;;;;2.63;100.00;97049.66;5010584;28;20749;-59
2022/11/08 06:36:01;;;;;;;16.60;11.57;;;;;;;2.54;100.00;97046.91;5023143;28;20222;-63
2022/11/08 06:38:29;;;;;;;12.30;10.97;;;;;;;2.63;100.00;97047.03;4971917;28;20339;-64
2022/11/08 06:40:59;;;;;;;12.50;10.93;;;;;;;2.62;100.00;97058.47;5021692;28;20811;-62
2022/11/08 06:43:27;;;;;;;16.53;10.20;;;;;;;2.60;100.00;97063.81;5023853;28;20414;-63
2022/11/08 06:46:00;;;;;;;11.83;9.83;;;;;;;2.65;100.00;97069.50;5025392;28;20199;-62
2022/11/08 06:48:28;;;;;;;10.93;10.07;;;;;;;2.67;100.00;97066.72;4996612;28;20866;-62
2022/11/08 06:51:04;;;;;;;10.53;9.63;;;;;;;2.73;100.00;97060.94;5024159;28;20303;-62
2022/11/08 06:53:33;;;;;;;16.93;12.10;;;;;;;2.62;100.00;97056.66;4970847;28;20215;-62
2022/11/08 06:56:02;;;;;;;11.67;10.47;;;;;;;2.56;100.00;97057.22;5021958;28;20393;-61
2022/11/08 06:58:30;;;;;;;10.73;9.60;;;;;;;2.65;100.00;97060.81;5023100;28;21183;-59
2022/11/08 07:01:00;;;;;;;9.87;9.07;;;;;;;2.68;100.00;97053.50;5024096;28;20217;-62
2022/11/08 07:03:29;;;;;;;9.77;8.93;;;;;;;2.79;100.00;97055.16;4994476;28;20325;-63
2022/11/08 07:05:57;;;;;;;10.60;9.70;;;;;;;2.89;100.00;97058.59;5025550;28;20210;-62
2022/11/08 07:08:27;;;;;;;13.47;12.07;;;;;;;2.85;100.00;97056.41;4975947;28;20720;-63
2022/11/08 07:10:55;;;;;;;16.50;14.20;;;;;;;2.88;100.00;97062.19;5021395;28;20207;-63
2022/11/08 07:13:23;;;;;;;11.10;10.00;;;;;;;2.90;100.00;97062.03;5018232;28;20319;-60
2022/11/08 07:15:51;;;;;;;22.00;10.83;;;;;;;2.99;100.00;97042.88;5022085;28;20665;-63
2022/11/08 07:18:20;;;;;;;10.67;9.63;;;;;;;3.01;100.00;97048.78;4995869;28;20513;-63
2022/11/08 07:20:48;;;;;;;11.50;10.40;;;;;;;2.97;100.00;97041.38;5024709;28;20264;-62
2022/11/08 07:23:16;;;;;;;13.70;12.60;;;;;;;3.03;100.00;97043.44;5019109;28;20230;-59
2022/11/08 07:25:46;;;;;;;11.73;10.40;;;;;;;2.96;100.00;97055.44;4946369;28;20214;-63
2022/11/08 07:28:16;;;;;;;11.23;10.20;;;;;;;2.87;100.00;97054.47;5022654;28;20362;-61
2022/11/08 07:30:45;;;;;;;19.80;11.03;;;;;;;2.97;100.00;97068.38;5021090;28;20203;-63
2022/11/08 07:33:14;;;;;;;12.60;11.30;;;;;;;3.01;100.00;97063.69;4996983;28;20850;-63
2022/11/08 07:35:46;;;;;;;14.20;12.83;;;;;;;3.03;100.00;97067.84;5020161;28;20214;-62
2022/11/08 07:38:14;;;;;;;11.17;9.33;;;;;;;3.04;100.00;97055.56;5024810;28;20836;-61
2022/11/08 07:40:42;;;;;;;11.53;9.30;;;;;;;3.12;100.00;97065.34;4968141;28;20422;-62
2022/11/08 07:43:12;;;;;;;9.73;8.90;;;;;;;3.21;100.00;97061.88;5022457;28;20207;-63
2022/11/08 07:45:41;;;;;;;10.37;9.53;;;;;;;3.25;100.00;97063.25;5022287;28;20320;-62
2022/11/08 07:48:10;;;;;;;10.73;9.93;;;;;;;3.50;100.00;97053.13;5022897;28;21871;-63
2022/11/08 07:50:40;;;;;;;13.03;10.73;;;;;;;3.76;100.00;97060.34;4992595;28;20256;-62
2022/11/08 07:53:09;;;;;;;11.23;9.53;;;;;;;3.94;100.00;97064.81;4992302;28;20627;-62
2022/11/08 07:55:37;;;;;;;12.60;9.83;;;;;;;4.12;100.00;97054.41;4966355;28;20223;-60
2022/11/08 07:58:05;;;;;;;12.03;11.03;;;;;;;4.10;100.00;97065.00;4988490;28;20442;-62
2022/11/08 08:00:37;;;;;;;13.53;12.10;;;;;;;4.15;100.00;97064.59;5021415;28;20233;-64
2022/11/08 08:03:07;;;;;;;14.07;11.33;;;;;;;4.00;100.00;97066.88;5018713;28;20203;-63
2022/11/08 08:05:37;;;;;;;21.97;13.53;;;;;;;4.17;100.00;97066.09;4994745;28;20866;-61
2022/11/08 08:08:06;;;;;;;32.37;14.77;;;;;;;3.97;100.00;97061.91;5020643;28;20877;-61
2022/11/08 08:10:35;;;;;;;27.33;14.23;;;;;;;4.34;100.00;97071.53;4973282;28;20530;-63
2022/11/08 08:13:03;;;;;;;16.57;14.07;;;;;;;4.40;100.00;97081.41;5018764;28;20209;-60
2022/11/08 08:15:32;;;;;;;15.70;14.20;;;;;;;4.61;100.00;97080.34;5022477;28;20336;-64
2022/11/08 08:18:02;;;;;;;13.53;12.20;;;;;;;4.92;100.00;97070.28;5023804;28;20202;-63
2022/11/08 08:20:31;;;;;;;13.70;12.27;;;;;;;4.83;100.00;97071.19;4998835;28;20534;-63
2022/11/08 08:23:00;;;;;;;13.10;11.90;;;;;;;4.92;100.00;97064.19;5022942;28;20427;-63
2022/11/08 08:25:30;;;;;;;13.00;12.00;;;;;;;4.89;100.00;97072.38;4975782;28;20221;-58
2022/11/08 08:28:00;;;;;;;13.80;12.53;;;;;;;4.84;100.00;97059.72;4992973;28;20364;-58
2022/11/08 08:30:30;;;;;;;12.87;11.77;;;;;;;5.21;100.00;97055.22;4944479;28;21072;-64
2022/11/08 08:33:05;;;;;;;13.47;12.10;;;;;;;5.40;100.00;97048.97;5022475;28;20371;-63
2022/11/08 08:35:54;;;;;;;14.03;12.57;;;;;;;5.69;100.00;97052.28;5024814;28;20839;-62
2022/11/08 08:38:22;;;;;;;14.73;13.33;;;;;;;5.75;100.00;97049.00;4994254;28;20762;-61
2022/11/08 08:40:50;;;;;;;14.10;12.90;;;;;;;5.85;100.00;97044.44;5020244;28;20310;-64
2022/11/08 08:43:19;;;;;;;12.73;11.73;;;;;;;6.07;100.00;97045.72;4965005;28;20217;-65
2022/11/08 08:45:48;;;;;;;15.20;14.00;;;;;;;6.35;100.00;97048.13;4984790;28;21013;-63
2022/11/08 08:48:18;;;;;;;14.50;13.23;;;;;;;6.39;100.00;97040.72;5031459;28;20206;-62
2022/11/08 08:50:47;;;;;;;13.13;12.00;;;;;;;6.48;100.00;97034.50;5029270;28;20308;-62
2022/11/08 08:53:15;;;;;;;13.33;12.17;;;;;;;6.46;100.00;97036.47;4956775;28;20226;-63
2022/11/08 08:55:44;;;;;;;13.80;12.47;;;;;;;6.49;100.00;97037.94;5020583;28;20203;-60
2022/11/08 08:58:12;;;;;;;13.13;11.97;;;;;;;6.64;100.00;97038.97;5005813;28;20780;-62
2022/11/08 09:00:42;;;;;;;12.43;11.43;;;;;;;7.07;100.00;97033.53;4976252;28;20720;-60
2022/11/08 09:03:31;;;;;;;13.43;12.33;;;;;;;7.29;100.00;97036.50;4997756;28;21023;-62
2022/11/08 09:06:01;;;;;;;12.50;11.57;;;;;;;8.34;100.00;97039.94;5016120;28;20230;-63
2022/11/08 09:08:29;;;;;;;14.83;13.37;;;;;;;9.97;100.00;97029.19;5001129;28;21259;-62
2022/11/08 09:10:58;;;;;;;13.97;12.83;;;;;;;10.70;100.00;97028.41;5022859;28;20203;-61
2022/11/08 09:13:29;;;;;;;12.07;11.07;;;;;;;11.58;100.00;97011.38;5001807;28;20266;-63
2022/11/08 09:16:00;;;;;;;11.27;10.17;;;;;;;10.48;100.00;97009.00;4987976;28;20218;-62
2022/11/08 09:18:28;;;;;;;10.40;9.60;;;;;;;9.93;100.00;97006.75;5024993;28;21283;-67
2022/11/08 09:20:58;;;;;;;9.87;9.07;;;;;;;9.83;100.00;97014.13;5025115;28;20401;-65
2022/11/08 09:23:28;;;;;;;10.23;9.27;;;;;;;10.06;100.00;97010.53;5025644;28;20214;-64
2022/11/08 09:25:57;;;;;;;10.67;9.60;;;;;;;10.07;100.00;97013.03;5004973;28;20207;-65
2022/11/08 09:28:26;;;;;;;11.33;10.43;;;;;;;9.96;100.00;97008.19;5024942;28;21023;-67
2022/11/08 09:31:02;;;;;;;10.97;9.83;;;;;;;10.35;100.00;97003.56;4984661;28;20201;-63
2022/11/08 09:33:31;;;;;;;10.63;9.88;;;;;;;10.38;100.00;97001.34;4991446;28;20670;-61
2022/11/08 09:36:02;;;;;;;11.00;10.07;;;;;;;10.25;100.00;96998.56;5025682;28;20203;-63
2022/11/08 09:38:30;;;;;;;10.03;9.23;;;;;;;10.33;100.00;97001.06;5026649;28;20234;-62
2022/11/08 09:41:16;;;;;;;10.47;9.60;;;;;;;10.13;100.00;97001.69;5005537;28;20487;-63
2022/11/08 09:43:55;;;;;;;10.97;10.13;;;;;;;9.65;100.00;96994.16;5026088;28;20206;-63
2022/11/08 09:46:28;;;;;;;10.60;9.80;;;;;;;10.05;100.00;96998.31;5006637;28;20961;-61
2022/11/08 09:48:58;;;;;;;10.93;10.03;;;;;;;9.95;100.00;96995.94;4985602;28;20226;-66
2022/11/08 09:51:30;;;;;;;11.30;10.20;;;;;;;10.26;100.00;96995.72;5025755;28;20237;-63
2022/11/08 09:53:59;;;;;;;11.00;10.00;;;;;;;10.18;100.00;96976.47;5026971;28;20209;-59
2022/11/08 09:56:30;;;;;;;10.90;9.97;;;;;;;10.16;100.00;96962.59;5003039;28;20214;-60
2022/11/08 09:59:03;;;;;;;10.80;9.37;;;;;;;10.44;100.00;96977.81;5028774;28;20388;-60
2022/11/08 10:01:33;;;;;;;11.37;10.37;;;;;;;10.70;100.00;96978.06;5004935;28;20210;-59
2022/11/08 10:04:03;;;;;;;10.20;9.40;;;;;;;10.85;100.00;96966.56;4977312;28;20337;-61
2022/11/08 10:06:52;;;;;;;11.00;10.07;;;;;;;10.83;100.00;96968.59;5023803;28;21132;-62
2022/11/08 10:09:50;;;;;;;9.70;8.93;;;;;;;10.89;100.00;96975.78;4996328;28;21863;-64
2022/11/08 10:12:21;;;;;;;8.97;8.23;;;;;;;11.03;100.00;96958.16;5022022;28;20218;-62
2022/11/08 10:14:59;;;;;;;9.93;8.93;;;;;;;11.09;100.00;96944.13;5026487;28;20330;-61
2022/11/08 10:17:46;;;;;;;9.57;8.83;;;;;;;10.82;100.00;96940.47;5001025;28;20229;-62
2022/11/08 10:20:19;;;;;;;9.27;8.47;;;;;;;10.82;100.00;96956.34;4991290;28;21182;-62
2022/11/08 10:22:55;;;;;;;9.20;8.37;;;;;;;10.90;100.00;96948.25;5027833;28;20221;-61
2022/11/08 10:25:25;;;;;;;9.40;8.43;;;;;;;10.75;100.00;96936.91;5004879;28;20210;-62
2022/11/08 10:27:55;;;;;;;8.53;7.73;;;;;;;10.67;100.00;96945.84;5026325;28;20198;-61
2022/11/08 10:30:26;;;;;;;9.10;8.30;;;;;;;10.75;100.00;96944.84;5006724;28;20915;-63
2022/11/08 10:32:56;;;;;;;8.23;7.43;;;;;;;10.90;100.00;96940.31;5026395;28;20207;-62
2022/11/08 10:35:28;;;;;;;8.30;7.50;;;;;;;11.11;100.00;96943.91;4992299;28;20214;-62
2022/11/08 10:37:59;;;;;;;8.37;7.67;;;;;;;10.84;100.00;96941.09;4964652;28;20891;-58
2022/11/08 10:40:36;;;;;;;8.30;7.60;;;;;;;10.69;100.00;96944.63;5001567;28;20227;-60
2022/11/08 10:43:10;;;;;;;7.57;6.87;;;;;;;10.39;100.00;96941.25;5002382;28;20203;-60
2022/11/08 10:45:38;;;;;;;7.30;6.67;;;;;;;10.34;100.00;96944.47;5001036;28;20206;-62
2022/11/08 10:48:07;;;;;;;7.40;6.90;;;;;;;10.27;100.00;96933.81;5026684;28;20206;-61
2022/11/08 10:50:42;;;;;;;9.07;8.27;;;;;;;10.84;100.00;96943.72;5024949;28;20227;-62
2022/11/08 10:53:17;;;;;;;7.33;6.73;;;;;;;11.13;100.00;96928.63;4991884;28;20217;-61
2022/11/08 10:55:51;;;;;;;6.73;6.30;;;;;;;11.52;98.00;96932.53;5022319;28;20206;-65
2022/11/08 10:58:30;;;;;;;7.77;7.17;;;;;;;11.60;92.96;96936.06;5029608;28;20222;-60
2022/11/08 11:01:03;;;;;;;7.00;6.47;;;;;;;11.62;91.85;96929.53;5017307;28;20217;-59
2022/11/08 11:03:32;;;;;;;6.53;5.93;;;;;;;11.59;92.47;96927.28;5006654;28;20202;-62
2022/11/08 11:06:01;;;;;;;9.00;6.57;;;;;;;11.53;91.44;96926.22;5028840;28;20214;-58
2022/11/08 11:08:31;;;;;;;7.53;7.00;;;;;;;11.33;91.24;96930.59;4993638;28;20206;-62
2022/11/08 11:11:21;;;;;;;7.73;7.03;;;;;;;11.35;93.00;96929.38;5028202;28;20202;-61
2022/11/08 11:14:05;;;;;;;6.83;6.30;;;;;;;11.44;93.58;96927.41;5026877;28;20229;-62
2022/11/08 11:16:34;;;;;;;6.73;6.23;;;;;;;11.48;92.94;96918.03;5008929;28;20203;-61
2022/11/08 11:19:04;;;;;;;6.17;5.77;;;;;;;11.36;90.74;96919.59;5028113;28;20736;-60
2022/11/08 11:21:36;;;;;;;6.40;5.87;;;;;;;11.42;91.16;96916.16;5024391;28;20210;-57
2022/11/08 11:24:10;;;;;;;6.03;5.50;;;;;;;11.56;90.06;96917.06;4988080;28;20214;-61
2022/11/08 11:26:47;;;;;;;6.20;5.80;;;;;;;11.53;89.05;96912.94;5024779;28;20202;-60
2022/11/08 11:29:20;;;;;;;7.70;5.70;;;;;;;11.45;87.65;96902.50;5020507;28;20318;-60
2022/11/08 11:31:50;;;;;;;6.20;5.60;;;;;;;11.60;89.26;96904.22;5004206;28;20217;-57
2022/11/08 11:34:27;;;;;;;6.50;6.00;;;;;;;11.77;87.73;96910.00;5021945;28;20219;-61
2022/11/08 11:36:57;;;;;;;6.13;5.63;;;;;;;11.72;87.88;96906.09;5022885;28;20203;-63
2022/11/08 11:39:31;;;;;;;5.73;5.23;;;;;;;11.76;87.23;96895.09;4976777;28;20245;-60
2022/11/08 11:42:04;;;;;;;6.00;5.50;;;;;;;11.97;87.86;96881.69;5024969;28;20206;-58
2022/11/08 11:45:00;;;;;;;5.93;5.43;;;;;;;12.00;86.90;96888.44;4994762;28;20211;-60
2022/11/08 11:47:31;;;;;;;7.13;6.57;;;;;;;11.94;85.85;96883.94;4996708;28;20896;-58
2022/11/08 11:50:06;;;;;;;6.43;5.87;;;;;;;11.90;87.41;96883.50;5025340;28;20331;-60
2022/11/08 11:52:34;;;;;;;6.13;5.63;;;;;;;11.93;87.59;96883.09;5023556;28;20407;-63
2022/11/08 11:55:05;;;;;;;5.80;5.17;;;;;;;11.90;86.33;96883.50;4993236;28;20210;-59
2022/11/08 11:57:38;;;;;;;5.23;4.93;;;;;;;11.88;86.52;96883.69;5023235;28;20412;-59
2022/11/08 12:00:09;;;;;;;7.97;7.27;;;;;;;11.82;85.53;96875.72;5020070;28;20233;-61
2022/11/08 12:03:12;;;;;;;11.47;9.33;;;;;;;11.60;86.69;96870.53;5010901;28;21851;-60